sensor_id;sensor_type;location;lat;lon;timestamp;P1;durP1;ratioP1;P2;durP2;ratioP2
52126;SDS011;38120;53.176;6.614;2022-10-16T00:01:35;9.13;;;2.30;;
52126;SDS011;38120;53.176;6.614;2022-10-16T00:04:01;6.03;;;2.00;;
52126;SDS011;38120;53.176;6.614;2022-10-16T00:08:54;7.82;;;2.20;;
52126;SDS011;38120;53.176;6.614;2022-10-16T00:11:27;5.68;;;2.17;;
52126;SDS011;38120;53.176;6.614;2022-10-16T00:14:05;6.00;;;2.25;;
52126;SDS011;38120;53.176;6.614;2022-10-16T00:16:33;12.00;;;3.05;;
52126;SDS011;38120;53.176;6.614;2022-10-16T00:18:59;9.95;;;2.13;;
52126;SDS011;38120;53.176;6.614;2022-10-16T00:21:26;14.00;;;2.25;;
52126;SDS011;38120;53.176;6.614;2022-10-16T00:23:54;9.20;;;2.08;;
52126;SDS011;38120;53.176;6.614;2022-10-16T00:26:29;7.10;;;2.40;;
52126;SDS011;38120;53.176;6.614;2022-10-16T00:28:56;5.22;;;2.20;;
52126;SDS011;38120;53.176;6.614;2022-10-16T00:31:22;7.50;;;1.67;;
52126;SDS011;38120;53.176;6.614;2022-10-16T00:33:48;7.55;;;2.50;;
52126;SDS011;38120;53.176;6.614;2022-10-16T00:38:42;6.18;;;2.33;;
52126;SDS011;38120;53.176;6.614;2022-10-16T00:41:10;5.85;;;2.05;;
52126;SDS011;38120;53.176;6.614;2022-10-16T00:48:45;6.68;;;2.03;;
52126;SDS011;38120;53.176;6.614;2022-10-16T00:51:19;12.85;;;2.33;;
52126;SDS011;38120;53.176;6.614;2022-10-16T00:53:50;6.50;;;1.73;;
52126;SDS011;38120;53.176;6.614;2022-10-16T00:56:16;6.68;;;2.72;;
52126;SDS011;38120;53.176;6.614;2022-10-16T01:01:08;7.32;;;2.15;;
52126;SDS011;38120;53.176;6.614;2022-10-16T01:03:35;5.30;;;2.25;;
52126;SDS011;38120;53.176;6.614;2022-10-16T01:09:01;5.63;;;2.10;;
52126;SDS011;38120;53.176;6.614;2022-10-16T01:11:49;9.75;;;2.10;;
52126;SDS011;38120;53.176;6.614;2022-10-16T01:14:59;6.80;;;2.67;;
52126;SDS011;38120;53.176;6.614;2022-10-16T01:20:20;8.45;;;2.22;;
52126;SDS011;38120;53.176;6.614;2022-10-16T01:23:36;9.65;;;2.22;;
52126;SDS011;38120;53.176;6.614;2022-10-16T01:28:26;5.95;;;1.45;;
52126;SDS011;38120;53.176;6.614;2022-10-16T01:30:58;5.68;;;2.05;;
52126;SDS011;38120;53.176;6.614;2022-10-16T01:33:30;6.15;;;1.77;;
52126;SDS011;38120;53.176;6.614;2022-10-16T01:36:05;5.40;;;1.92;;
52126;SDS011;38120;53.176;6.614;2022-10-16T01:38:37;5.00;;;1.80;;
52126;SDS011;38120;53.176;6.614;2022-10-16T01:41:27;5.68;;;2.00;;
52126;SDS011;38120;53.176;6.614;2022-10-16T01:43:56;4.28;;;1.42;;
52126;SDS011;38120;53.176;6.614;2022-10-16T01:46:27;6.63;;;2.22;;
52126;SDS011;38120;53.176;6.614;2022-10-16T01:48:55;6.88;;;1.60;;
52126;SDS011;38120;53.176;6.614;2022-10-16T01:51:22;8.18;;;1.83;;
52126;SDS011;38120;53.176;6.614;2022-10-16T01:53:51;6.30;;;1.80;;
52126;SDS011;38120;53.176;6.614;2022-10-16T01:56:18;6.68;;;2.17;;
52126;SDS011;38120;53.176;6.614;2022-10-16T01:58:52;8.20;;;1.80;;
52126;SDS011;38120;53.176;6.614;2022-10-16T02:01:21;12.00;;;2.58;;
52126;SDS011;38120;53.176;6.614;2022-10-16T02:03:51;4.80;;;1.60;;
52126;SDS011;38120;53.176;6.614;2022-10-16T02:06:19;4.30;;;1.63;;
52126;SDS011;38120;53.176;6.614;2022-10-16T02:08:45;9.18;;;2.25;;
52126;SDS011;38120;53.176;6.614;2022-10-16T02:11:11;4.60;;;2.13;;
52126;SDS011;38120;53.176;6.614;2022-10-16T02:13:38;4.00;;;1.57;;
52126;SDS011;38120;53.176;6.614;2022-10-16T02:16:10;3.47;;;1.83;;
52126;SDS011;38120;53.176;6.614;2022-10-16T02:18:38;5.80;;;1.95;;
52126;SDS011;38120;53.176;6.614;2022-10-16T02:21:15;3.22;;;1.38;;
52126;SDS011;38120;53.176;6.614;2022-10-16T02:23:51;6.72;;;1.80;;
52126;SDS011;38120;53.176;6.614;2022-10-16T02:26:30;6.17;;;2.23;;
52126;SDS011;38120;53.176;6.614;2022-10-16T02:29:02;5.47;;;1.77;;
52126;SDS011;38120;53.176;6.614;2022-10-16T02:31:32;5.07;;;1.60;;
52126;SDS011;38120;53.176;6.614;2022-10-16T02:34:02;4.90;;;2.00;;
52126;SDS011;38120;53.176;6.614;2022-10-16T02:36:30;4.60;;;1.60;;
52126;SDS011;38120;53.176;6.614;2022-10-16T02:38:57;3.45;;;1.60;;
52126;SDS011;38120;53.176;6.614;2022-10-16T02:41:26;4.60;;;1.73;;
52126;SDS011;38120;53.176;6.614;2022-10-16T02:43:52;10.10;;;2.05;;
52126;SDS011;38120;53.176;6.614;2022-10-16T02:46:18;5.25;;;1.63;;
52126;SDS011;38120;53.176;6.614;2022-10-16T02:51:10;5.45;;;1.60;;
52126;SDS011;38120;53.176;6.614;2022-10-16T02:53:36;4.30;;;1.83;;
52126;SDS011;38120;53.176;6.614;2022-10-16T02:56:01;6.57;;;1.50;;
52126;SDS011;38120;53.176;6.614;2022-10-16T02:58:27;4.88;;;1.67;;
52126;SDS011;38120;53.176;6.614;2022-10-16T03:00:53;5.32;;;1.70;;
52126;SDS011;38120;53.176;6.614;2022-10-16T03:03:19;5.32;;;2.00;;
52126;SDS011;38120;53.176;6.614;2022-10-16T03:05:45;5.37;;;1.80;;
52126;SDS011;38120;53.176;6.614;2022-10-16T03:08:11;4.40;;;1.90;;
52126;SDS011;38120;53.176;6.614;2022-10-16T03:10:37;3.50;;;1.48;;
52126;SDS011;38120;53.176;6.614;2022-10-16T03:13:03;4.10;;;2.10;;
52126;SDS011;38120;53.176;6.614;2022-10-16T03:15:29;6.38;;;2.20;;
52126;SDS011;38120;53.176;6.614;2022-10-16T03:17:57;5.60;;;1.95;;
52126;SDS011;38120;53.176;6.614;2022-10-16T03:20:23;5.80;;;2.10;;
52126;SDS011;38120;53.176;6.614;2022-10-16T03:22:49;3.30;;;1.80;;
52126;SDS011;38120;53.176;6.614;2022-10-16T03:25:15;3.47;;;1.85;;
52126;SDS011;38120;53.176;6.614;2022-10-16T03:27:40;7.90;;;2.53;;
52126;SDS011;38120;53.176;6.614;2022-10-16T03:30:06;2.97;;;1.50;;
52126;SDS011;38120;53.176;6.614;2022-10-16T03:32:32;4.63;;;1.98;;
52126;SDS011;38120;53.176;6.614;2022-10-16T03:34:58;2.93;;;1.80;;
52126;SDS011;38120;53.176;6.614;2022-10-16T03:37:24;4.60;;;2.10;;
52126;SDS011;38120;53.176;6.614;2022-10-16T03:39:50;3.92;;;1.90;;
52126;SDS011;38120;53.176;6.614;2022-10-16T03:42:15;5.38;;;2.35;;
52126;SDS011;38120;53.176;6.614;2022-10-16T03:44:41;5.55;;;2.00;;
52126;SDS011;38120;53.176;6.614;2022-10-16T03:47:07;5.93;;;2.13;;
52126;SDS011;38120;53.176;6.614;2022-10-16T03:49:33;7.72;;;2.05;;
52126;SDS011;38120;53.176;6.614;2022-10-16T03:51:58;3.77;;;1.90;;
52126;SDS011;38120;53.176;6.614;2022-10-16T03:54:24;7.53;;;2.37;;
52126;SDS011;38120;53.176;6.614;2022-10-16T03:56:50;5.93;;;1.80;;
52126;SDS011;38120;53.176;6.614;2022-10-16T03:59:15;5.23;;;2.00;;
52126;SDS011;38120;53.176;6.614;2022-10-16T04:01:41;3.17;;;1.57;;
52126;SDS011;38120;53.176;6.614;2022-10-16T04:04:07;5.90;;;1.67;;
52126;SDS011;38120;53.176;6.614;2022-10-16T04:06:32;4.53;;;2.03;;
52126;SDS011;38120;53.176;6.614;2022-10-16T04:08:58;5.00;;;1.77;;
52126;SDS011;38120;53.176;6.614;2022-10-16T04:11:24;5.22;;;1.90;;
52126;SDS011;38120;53.176;6.614;2022-10-16T04:13:49;6.60;;;1.70;;
52126;SDS011;38120;53.176;6.614;2022-10-16T04:16:15;6.63;;;2.30;;
52126;SDS011;38120;53.176;6.614;2022-10-16T04:18:41;4.90;;;2.10;;
52126;SDS011;38120;53.176;6.614;2022-10-16T04:21:06;5.00;;;1.90;;
52126;SDS011;38120;53.176;6.614;2022-10-16T04:23:33;7.32;;;2.38;;
52126;SDS011;38120;53.176;6.614;2022-10-16T04:25:59;5.95;;;2.13;;
52126;SDS011;38120;53.176;6.614;2022-10-16T04:28:25;4.32;;;1.90;;
52126;SDS011;38120;53.176;6.614;2022-10-16T04:30:51;6.50;;;1.98;;
52126;SDS011;38120;53.176;6.614;2022-10-16T04:33:16;4.50;;;1.80;;
52126;SDS011;38120;53.176;6.614;2022-10-16T04:35:42;11.38;;;2.22;;
52126;SDS011;38120;53.176;6.614;2022-10-16T04:38:08;4.20;;;1.77;;
52126;SDS011;38120;53.176;6.614;2022-10-16T04:40:33;7.03;;;2.23;;
52126;SDS011;38120;53.176;6.614;2022-10-16T04:43:01;5.55;;;1.92;;
52126;SDS011;38120;53.176;6.614;2022-10-16T04:45:28;5.25;;;1.80;;
52126;SDS011;38120;53.176;6.614;2022-10-16T04:47:56;5.90;;;2.08;;
52126;SDS011;38120;53.176;6.614;2022-10-16T04:50:23;4.93;;;1.95;;
52126;SDS011;38120;53.176;6.614;2022-10-16T04:52:49;6.03;;;2.13;;
52126;SDS011;38120;53.176;6.614;2022-10-16T04:55:14;4.30;;;1.93;;
52126;SDS011;38120;53.176;6.614;2022-10-16T04:57:40;4.28;;;2.00;;
52126;SDS011;38120;53.176;6.614;2022-10-16T05:00:06;5.82;;;2.25;;
52126;SDS011;38120;53.176;6.614;2022-10-16T05:04:59;3.17;;;1.83;;
52126;SDS011;38120;53.176;6.614;2022-10-16T05:07:24;6.60;;;2.40;;
52126;SDS011;38120;53.176;6.614;2022-10-16T05:09:50;6.10;;;1.70;;
52126;SDS011;38120;53.176;6.614;2022-10-16T05:12:16;5.23;;;2.43;;
52126;SDS011;38120;53.176;6.614;2022-10-16T05:14:41;4.57;;;2.35;;
52126;SDS011;38120;53.176;6.614;2022-10-16T05:17:07;4.97;;;2.43;;
52126;SDS011;38120;53.176;6.614;2022-10-16T05:19:33;5.20;;;2.47;;
52126;SDS011;38120;53.176;6.614;2022-10-16T05:21:58;7.23;;;2.10;;
52126;SDS011;38120;53.176;6.614;2022-10-16T05:24:24;5.23;;;2.37;;
52126;SDS011;38120;53.176;6.614;2022-10-16T05:26:50;9.50;;;2.67;;
52126;SDS011;38120;53.176;6.614;2022-10-16T05:29:17;7.75;;;3.20;;
52126;SDS011;38120;53.176;6.614;2022-10-16T05:31:42;5.05;;;2.30;;
52126;SDS011;38120;53.176;6.614;2022-10-16T05:34:08;6.65;;;2.88;;
52126;SDS011;38120;53.176;6.614;2022-10-16T05:36:34;3.53;;;1.85;;
52126;SDS011;38120;53.176;6.614;2022-10-16T05:39:00;5.07;;;2.83;;
52126;SDS011;38120;53.176;6.614;2022-10-16T05:41:26;6.65;;;3.10;;
52126;SDS011;38120;53.176;6.614;2022-10-16T05:43:52;9.82;;;2.90;;
52126;SDS011;38120;53.176;6.614;2022-10-16T05:46:18;7.65;;;3.33;;
52126;SDS011;38120;53.176;6.614;2022-10-16T05:48:44;6.72;;;2.75;;
52126;SDS011;38120;53.176;6.614;2022-10-16T05:51:11;6.50;;;2.92;;
52126;SDS011;38120;53.176;6.614;2022-10-16T05:53:39;5.00;;;2.55;;
52126;SDS011;38120;53.176;6.614;2022-10-16T05:56:06;5.05;;;3.15;;
52126;SDS011;38120;53.176;6.614;2022-10-16T05:58:35;7.28;;;3.17;;
52126;SDS011;38120;53.176;6.614;2022-10-16T06:03:29;8.85;;;2.80;;
52126;SDS011;38120;53.176;6.614;2022-10-16T06:05:55;6.23;;;2.80;;
52126;SDS011;38120;53.176;6.614;2022-10-16T06:08:21;8.93;;;2.80;;
52126;SDS011;38120;53.176;6.614;2022-10-16T06:10:48;6.25;;;2.88;;
52126;SDS011;38120;53.176;6.614;2022-10-16T06:13:24;7.32;;;2.83;;
52126;SDS011;38120;53.176;6.614;2022-10-16T06:15:50;7.93;;;3.40;;
52126;SDS011;38120;53.176;6.614;2022-10-16T06:18:15;5.87;;;2.63;;
52126;SDS011;38120;53.176;6.614;2022-10-16T06:20:41;8.23;;;3.35;;
52126;SDS011;38120;53.176;6.614;2022-10-16T06:23:07;8.90;;;3.57;;
52126;SDS011;38120;53.176;6.614;2022-10-16T06:25:32;7.30;;;3.60;;
52126;SDS011;38120;53.176;6.614;2022-10-16T06:27:59;7.53;;;2.80;;
52126;SDS011;38120;53.176;6.614;2022-10-16T06:30:24;6.15;;;2.70;;
52126;SDS011;38120;53.176;6.614;2022-10-16T06:32:50;6.43;;;2.83;;
52126;SDS011;38120;53.176;6.614;2022-10-16T06:35:16;8.20;;;2.50;;
52126;SDS011;38120;53.176;6.614;2022-10-16T06:37:41;6.80;;;2.70;;
52126;SDS011;38120;53.176;6.614;2022-10-16T06:40:07;9.07;;;3.13;;
52126;SDS011;38120;53.176;6.614;2022-10-16T06:42:33;5.57;;;2.80;;
52126;SDS011;38120;53.176;6.614;2022-10-16T06:44:58;7.03;;;3.03;;
52126;SDS011;38120;53.176;6.614;2022-10-16T06:47:24;6.03;;;2.60;;
52126;SDS011;38120;53.176;6.614;2022-10-16T06:49:50;7.07;;;2.63;;
52126;SDS011;38120;53.176;6.614;2022-10-16T06:52:15;8.68;;;2.53;;
52126;SDS011;38120;53.176;6.614;2022-10-16T06:54:41;10.18;;;3.88;;
52126;SDS011;38120;53.176;6.614;2022-10-16T06:57:07;5.17;;;2.77;;
52126;SDS011;38120;53.176;6.614;2022-10-16T06:59:33;8.47;;;2.83;;
52126;SDS011;38120;53.176;6.614;2022-10-16T07:01:58;6.17;;;2.77;;
52126;SDS011;38120;53.176;6.614;2022-10-16T07:04:24;4.93;;;2.73;;
52126;SDS011;38120;53.176;6.614;2022-10-16T07:06:49;5.73;;;2.00;;
52126;SDS011;38120;53.176;6.614;2022-10-16T07:09:16;8.77;;;3.05;;
52126;SDS011;38120;53.176;6.614;2022-10-16T07:11:42;4.57;;;2.60;;
52126;SDS011;38120;53.176;6.614;2022-10-16T07:14:18;6.43;;;2.25;;
52126;SDS011;38120;53.176;6.614;2022-10-16T07:16:45;5.43;;;2.50;;
52126;SDS011;38120;53.176;6.614;2022-10-16T07:19:11;4.95;;;1.92;;
52126;SDS011;38120;53.176;6.614;2022-10-16T07:21:40;8.48;;;2.60;;
52126;SDS011;38120;53.176;6.614;2022-10-16T07:24:07;5.25;;;2.22;;
52126;SDS011;38120;53.176;6.614;2022-10-16T07:26:37;6.18;;;2.42;;
52126;SDS011;38120;53.176;6.614;2022-10-16T07:31:38;6.95;;;2.75;;
52126;SDS011;38120;53.176;6.614;2022-10-16T07:34:05;5.82;;;2.10;;
52126;SDS011;38120;53.176;6.614;2022-10-16T07:36:30;7.70;;;2.28;;
52126;SDS011;38120;53.176;6.614;2022-10-16T07:38:56;6.07;;;2.33;;
52126;SDS011;38120;53.176;6.614;2022-10-16T07:41:22;5.13;;;2.43;;
52126;SDS011;38120;53.176;6.614;2022-10-16T07:43:48;6.90;;;2.63;;
52126;SDS011;38120;53.176;6.614;2022-10-16T07:46:15;4.70;;;2.47;;
52126;SDS011;38120;53.176;6.614;2022-10-16T07:48:42;6.18;;;2.47;;
52126;SDS011;38120;53.176;6.614;2022-10-16T07:51:13;7.32;;;2.70;;
52126;SDS011;38120;53.176;6.614;2022-10-16T07:53:41;5.47;;;2.78;;
52126;SDS011;38120;53.176;6.614;2022-10-16T07:56:07;9.00;;;2.92;;
52126;SDS011;38120;53.176;6.614;2022-10-16T07:58:33;5.40;;;2.38;;
52126;SDS011;38120;53.176;6.614;2022-10-16T08:01:09;5.22;;;2.33;;
52126;SDS011;38120;53.176;6.614;2022-10-16T08:03:37;6.85;;;2.17;;
52126;SDS011;38120;53.176;6.614;2022-10-16T08:06:03;8.43;;;2.55;;
52126;SDS011;38120;53.176;6.614;2022-10-16T08:08:30;6.47;;;2.40;;
52126;SDS011;38120;53.176;6.614;2022-10-16T08:10:56;5.43;;;2.25;;
52126;SDS011;38120;53.176;6.614;2022-10-16T08:13:21;8.35;;;2.20;;
52126;SDS011;38120;53.176;6.614;2022-10-16T08:15:47;8.02;;;2.90;;
52126;SDS011;38120;53.176;6.614;2022-10-16T08:18:14;7.57;;;2.58;;
52126;SDS011;38120;53.176;6.614;2022-10-16T08:20:40;7.20;;;2.42;;
52126;SDS011;38120;53.176;6.614;2022-10-16T08:23:07;6.47;;;1.85;;
52126;SDS011;38120;53.176;6.614;2022-10-16T08:25:35;5.07;;;1.77;;
52126;SDS011;38120;53.176;6.614;2022-10-16T08:28:03;5.75;;;2.10;;
52126;SDS011;38120;53.176;6.614;2022-10-16T08:30:30;7.57;;;2.17;;
52126;SDS011;38120;53.176;6.614;2022-10-16T08:32:56;7.72;;;2.45;;
52126;SDS011;38120;53.176;6.614;2022-10-16T08:35:23;3.45;;;1.60;;
52126;SDS011;38120;53.176;6.614;2022-10-16T08:37:49;7.63;;;1.88;;
52126;SDS011;38120;53.176;6.614;2022-10-16T08:40:28;4.87;;;2.03;;
52126;SDS011;38120;53.176;6.614;2022-10-16T08:51:19;6.90;;;1.85;;
52126;SDS011;38120;53.176;6.614;2022-10-16T08:53:55;4.93;;;1.30;;
52126;SDS011;38120;53.176;6.614;2022-10-16T08:56:23;6.00;;;1.42;;
52126;SDS011;38120;53.176;6.614;2022-10-16T08:58:50;6.78;;;2.03;;
52126;SDS011;38120;53.176;6.614;2022-10-16T09:01:17;7.25;;;2.15;;
52126;SDS011;38120;53.176;6.614;2022-10-16T09:03:54;6.78;;;1.40;;
52126;SDS011;38120;53.176;6.614;2022-10-16T09:06:32;6.72;;;1.98;;
52126;SDS011;38120;53.176;6.614;2022-10-16T09:12:21;6.45;;;2.33;;
52126;SDS011;38120;53.176;6.614;2022-10-16T09:17:34;3.38;;;1.38;;
52126;SDS011;38120;53.176;6.614;2022-10-16T09:23:16;4.53;;;1.60;;
52126;SDS011;38120;53.176;6.614;2022-10-16T09:25:50;10.13;;;2.45;;
52126;SDS011;38120;53.176;6.614;2022-10-16T09:28:17;9.23;;;2.17;;
52126;SDS011;38120;53.176;6.614;2022-10-16T09:30:43;11.27;;;2.97;;
52126;SDS011;38120;53.176;6.614;2022-10-16T09:33:11;12.90;;;2.63;;
52126;SDS011;38120;53.176;6.614;2022-10-16T09:35:39;11.32;;;3.45;;
52126;SDS011;38120;53.176;6.614;2022-10-16T09:38:08;9.18;;;2.10;;
52126;SDS011;38120;53.176;6.614;2022-10-16T09:40:45;8.23;;;1.70;;
52126;SDS011;38120;53.176;6.614;2022-10-16T09:43:24;10.98;;;3.00;;
52126;SDS011;38120;53.176;6.614;2022-10-16T09:46:07;11.70;;;2.33;;
52126;SDS011;38120;53.176;6.614;2022-10-16T09:51:17;13.52;;;3.42;;
52126;SDS011;38120;53.176;6.614;2022-10-16T09:56:33;11.65;;;2.47;;
52126;SDS011;38120;53.176;6.614;2022-10-16T09:59:11;11.80;;;2.53;;
52126;SDS011;38120;53.176;6.614;2022-10-16T10:01:39;10.27;;;2.42;;
52126;SDS011;38120;53.176;6.614;2022-10-16T10:04:07;8.50;;;2.50;;
52126;SDS011;38120;53.176;6.614;2022-10-16T10:06:34;8.30;;;2.50;;
52126;SDS011;38120;53.176;6.614;2022-10-16T10:09:18;8.45;;;2.58;;
52126;SDS011;38120;53.176;6.614;2022-10-16T10:16:52;9.82;;;2.70;;
52126;SDS011;38120;53.176;6.614;2022-10-16T10:19:27;8.88;;;3.05;;
52126;SDS011;38120;53.176;6.614;2022-10-16T10:21:53;10.60;;;2.28;;
52126;SDS011;38120;53.176;6.614;2022-10-16T10:24:19;7.78;;;3.22;;
52126;SDS011;38120;53.176;6.614;2022-10-16T10:27:05;8.90;;;2.42;;
52126;SDS011;38120;53.176;6.614;2022-10-16T10:32:19;10.98;;;2.92;;
52126;SDS011;38120;53.176;6.614;2022-10-16T10:34:51;8.10;;;2.42;;
52126;SDS011;38120;53.176;6.614;2022-10-16T10:42:52;7.90;;;2.60;;
52126;SDS011;38120;53.176;6.614;2022-10-16T10:45:26;9.30;;;2.50;;
52126;SDS011;38120;53.176;6.614;2022-10-16T10:48:03;9.00;;;2.70;;
52126;SDS011;38120;53.176;6.614;2022-10-16T10:53:40;10.20;;;2.20;;
52126;SDS011;38120;53.176;6.614;2022-10-16T11:07:13;11.88;;;2.28;;
52126;SDS011;38120;53.176;6.614;2022-10-16T11:09:46;14.88;;;3.53;;
52126;SDS011;38120;53.176;6.614;2022-10-16T11:12:24;11.55;;;2.92;;
52126;SDS011;38120;53.176;6.614;2022-10-16T11:20:42;10.45;;;3.10;;
52126;SDS011;38120;53.176;6.614;2022-10-16T11:26:26;10.32;;;2.97;;
52126;SDS011;38120;53.176;6.614;2022-10-16T11:28:56;15.82;;;2.75;;
52126;SDS011;38120;53.176;6.614;2022-10-16T11:34:09;7.82;;;2.70;;
52126;SDS011;38120;53.176;6.614;2022-10-16T11:37:29;10.32;;;2.53;;
52126;SDS011;38120;53.176;6.614;2022-10-16T11:39:36;11.63;;;2.70;;
52126;SDS011;38120;53.176;6.614;2022-10-16T11:42:07;9.77;;;2.80;;
52126;SDS011;38120;53.176;6.614;2022-10-16T11:47:24;10.50;;;2.97;;
52126;SDS011;38120;53.176;6.614;2022-10-16T11:51:14;9.38;;;2.15;;
52126;SDS011;38120;53.176;6.614;2022-10-16T11:53:13;10.98;;;2.05;;
52126;SDS011;38120;53.176;6.614;2022-10-16T11:55:47;9.48;;;2.40;;
52126;SDS011;38120;53.176;6.614;2022-10-16T12:03:22;10.15;;;2.33;;
52126;SDS011;38120;53.176;6.614;2022-10-16T12:08:48;6.90;;;2.25;;
52126;SDS011;38120;53.176;6.614;2022-10-16T12:16:38;8.50;;;1.83;;
52126;SDS011;38120;53.176;6.614;2022-10-16T12:19:17;8.82;;;2.40;;
52126;SDS011;38120;53.176;6.614;2022-10-16T12:21:43;9.38;;;2.28;;
52126;SDS011;38120;53.176;6.614;2022-10-16T12:24:20;11.20;;;2.72;;
52126;SDS011;38120;53.176;6.614;2022-10-16T12:26:46;11.30;;;2.50;;
52126;SDS011;38120;53.176;6.614;2022-10-16T12:29:34;7.32;;;2.30;;
52126;SDS011;38120;53.176;6.614;2022-10-16T12:32:04;8.50;;;2.75;;
52126;SDS011;38120;53.176;6.614;2022-10-16T12:34:45;12.18;;;2.17;;
52126;SDS011;38120;53.176;6.614;2022-10-16T12:39:43;8.45;;;2.63;;
52126;SDS011;38120;53.176;6.614;2022-10-16T12:44:50;9.02;;;2.67;;
52126;SDS011;38120;53.176;6.614;2022-10-16T12:47:24;13.55;;;2.83;;
52126;SDS011;38120;53.176;6.614;2022-10-16T12:50:01;7.55;;;2.67;;
52126;SDS011;38120;53.176;6.614;2022-10-16T12:55:01;8.77;;;2.28;;
52126;SDS011;38120;53.176;6.614;2022-10-16T13:00:13;10.40;;;2.47;;
52126;SDS011;38120;53.176;6.614;2022-10-16T13:05:26;11.25;;;2.47;;
52126;SDS011;38120;53.176;6.614;2022-10-16T13:08:14;6.22;;;2.10;;
52126;SDS011;38120;53.176;6.614;2022-10-16T13:11:17;11.48;;;2.45;;
52126;SDS011;38120;53.176;6.614;2022-10-16T13:16:42;9.93;;;2.70;;
52126;SDS011;38120;53.176;6.614;2022-10-16T13:28:12;13.07;;;2.92;;
52126;SDS011;38120;53.176;6.614;2022-10-16T13:33:15;13.32;;;2.85;;
52126;SDS011;38120;53.176;6.614;2022-10-16T13:35:51;8.10;;;2.90;;
52126;SDS011;38120;53.176;6.614;2022-10-16T13:38:20;8.30;;;2.55;;
52126;SDS011;38120;53.176;6.614;2022-10-16T13:40:51;10.70;;;2.70;;
52126;SDS011;38120;53.176;6.614;2022-10-16T13:43:20;9.90;;;2.45;;
52126;SDS011;38120;53.176;6.614;2022-10-16T13:45:53;10.05;;;2.50;;
52126;SDS011;38120;53.176;6.614;2022-10-16T13:48:26;6.55;;;2.35;;
52126;SDS011;38120;53.176;6.614;2022-10-16T13:51:06;11.05;;;2.63;;
52126;SDS011;38120;53.176;6.614;2022-10-16T13:53:43;8.27;;;2.13;;
52126;SDS011;38120;53.176;6.614;2022-10-16T13:56:11;9.35;;;2.40;;
52126;SDS011;38120;53.176;6.614;2022-10-16T13:58:38;7.80;;;2.70;;
52126;SDS011;38120;53.176;6.614;2022-10-16T14:01:05;9.80;;;2.67;;
52126;SDS011;38120;53.176;6.614;2022-10-16T14:04:04;11.02;;;2.50;;
52126;SDS011;38120;53.176;6.614;2022-10-16T14:06:33;9.90;;;2.83;;
52126;SDS011;38120;53.176;6.614;2022-10-16T14:09:07;7.35;;;2.38;;
52126;SDS011;38120;53.176;6.614;2022-10-16T14:11:44;11.63;;;2.88;;
52126;SDS011;38120;53.176;6.614;2022-10-16T14:14:13;11.27;;;2.80;;
52126;SDS011;38120;53.176;6.614;2022-10-16T14:16:40;8.73;;;2.38;;
52126;SDS011;38120;53.176;6.614;2022-10-16T14:19:21;16.92;;;3.10;;
52126;SDS011;38120;53.176;6.614;2022-10-16T14:21:50;13.32;;;2.72;;
52126;SDS011;38120;53.176;6.614;2022-10-16T14:26:54;11.75;;;2.90;;
52126;SDS011;38120;53.176;6.614;2022-10-16T14:29:22;9.68;;;3.03;;
52126;SDS011;38120;53.176;6.614;2022-10-16T14:34:32;12.80;;;2.67;;
52126;SDS011;38120;53.176;6.614;2022-10-16T14:37:02;12.25;;;3.10;;
52126;SDS011;38120;53.176;6.614;2022-10-16T14:39:34;9.23;;;2.47;;
52126;SDS011;38120;53.176;6.614;2022-10-16T14:44:31;10.18;;;2.47;;
52126;SDS011;38120;53.176;6.614;2022-10-16T14:46:58;8.25;;;2.90;;
52126;SDS011;38120;53.176;6.614;2022-10-16T14:49:32;8.93;;;2.72;;
52126;SDS011;38120;53.176;6.614;2022-10-16T14:51:58;8.73;;;2.80;;
52126;SDS011;38120;53.176;6.614;2022-10-16T14:54:23;10.57;;;2.87;;
52126;SDS011;38120;53.176;6.614;2022-10-16T14:56:58;12.13;;;2.65;;
52126;SDS011;38120;53.176;6.614;2022-10-16T14:59:28;11.40;;;2.40;;
52126;SDS011;38120;53.176;6.614;2022-10-16T15:02:00;14.82;;;2.72;;
52126;SDS011;38120;53.176;6.614;2022-10-16T15:04:40;10.65;;;2.92;;
52126;SDS011;38120;53.176;6.614;2022-10-16T15:07:06;9.63;;;2.25;;
52126;SDS011;38120;53.176;6.614;2022-10-16T15:09:33;10.55;;;2.40;;
52126;SDS011;38120;53.176;6.614;2022-10-16T15:11:58;10.63;;;3.22;;
52126;SDS011;38120;53.176;6.614;2022-10-16T15:14:24;7.80;;;2.08;;
52126;SDS011;38120;53.176;6.614;2022-10-16T15:16:49;8.70;;;2.63;;
52126;SDS011;38120;53.176;6.614;2022-10-16T15:19:15;11.70;;;3.28;;
52126;SDS011;38120;53.176;6.614;2022-10-16T15:21:41;12.48;;;2.92;;
52126;SDS011;38120;53.176;6.614;2022-10-16T15:24:09;8.77;;;2.10;;
52126;SDS011;38120;53.176;6.614;2022-10-16T15:26:37;10.60;;;2.45;;
52126;SDS011;38120;53.176;6.614;2022-10-16T15:29:04;11.85;;;2.67;;
52126;SDS011;38120;53.176;6.614;2022-10-16T15:31:30;15.50;;;2.97;;
52126;SDS011;38120;53.176;6.614;2022-10-16T15:33:55;8.68;;;3.47;;
52126;SDS011;38120;53.176;6.614;2022-10-16T15:36:36;9.88;;;2.88;;
52126;SDS011;38120;53.176;6.614;2022-10-16T15:39:03;11.88;;;3.05;;
52126;SDS011;38120;53.176;6.614;2022-10-16T15:41:30;9.93;;;2.75;;
52126;SDS011;38120;53.176;6.614;2022-10-16T15:43:56;10.52;;;2.70;;
52126;SDS011;38120;53.176;6.614;2022-10-16T15:46:23;18.10;;;3.23;;
52126;SDS011;38120;53.176;6.614;2022-10-16T15:48:49;11.82;;;2.80;;
52126;SDS011;38120;53.176;6.614;2022-10-16T15:51:16;12.48;;;2.85;;
52126;SDS011;38120;53.176;6.614;2022-10-16T15:53:42;11.70;;;2.80;;
52126;SDS011;38120;53.176;6.614;2022-10-16T15:56:11;16.42;;;3.55;;
52126;SDS011;38120;53.176;6.614;2022-10-16T16:01:03;8.95;;;2.10;;
52126;SDS011;38120;53.176;6.614;2022-10-16T16:03:30;10.45;;;2.67;;
52126;SDS011;38120;53.176;6.614;2022-10-16T16:05:56;10.88;;;2.45;;
52126;SDS011;38120;53.176;6.614;2022-10-16T16:08:22;12.65;;;3.05;;
52126;SDS011;38120;53.176;6.614;2022-10-16T16:11:01;8.85;;;2.92;;
52126;SDS011;38120;53.176;6.614;2022-10-16T16:13:31;7.68;;;2.67;;
52126;SDS011;38120;53.176;6.614;2022-10-16T16:15:57;14.80;;;3.38;;
52126;SDS011;38120;53.176;6.614;2022-10-16T16:18:23;19.75;;;3.65;;
52126;SDS011;38120;53.176;6.614;2022-10-16T16:20:49;12.20;;;3.63;;
52126;SDS011;38120;53.176;6.614;2022-10-16T16:23:16;12.95;;;3.47;;
52126;SDS011;38120;53.176;6.614;2022-10-16T16:25:42;12.13;;;3.40;;
52126;SDS011;38120;53.176;6.614;2022-10-16T16:28:08;10.48;;;2.90;;
52126;SDS011;38120;53.176;6.614;2022-10-16T16:30:36;8.85;;;2.53;;
52126;SDS011;38120;53.176;6.614;2022-10-16T16:33:02;10.38;;;3.80;;
52126;SDS011;38120;53.176;6.614;2022-10-16T16:37:54;14.18;;;5.00;;
52126;SDS011;38120;53.176;6.614;2022-10-16T16:40:19;13.98;;;4.68;;
52126;SDS011;38120;53.176;6.614;2022-10-16T16:42:47;12.20;;;4.60;;
52126;SDS011;38120;53.176;6.614;2022-10-16T16:45:13;11.30;;;5.50;;
52126;SDS011;38120;53.176;6.614;2022-10-16T16:47:39;14.10;;;4.63;;
52126;SDS011;38120;53.176;6.614;2022-10-16T16:50:05;13.55;;;4.63;;
52126;SDS011;38120;53.176;6.614;2022-10-16T16:52:32;8.73;;;3.67;;
52126;SDS011;38120;53.176;6.614;2022-10-16T16:54:58;12.38;;;4.63;;
52126;SDS011;38120;53.176;6.614;2022-10-16T16:57:24;10.32;;;4.68;;
52126;SDS011;38120;53.176;6.614;2022-10-16T16:59:50;16.70;;;5.35;;
52126;SDS011;38120;53.176;6.614;2022-10-16T17:04:42;11.48;;;4.45;;
52126;SDS011;38120;53.176;6.614;2022-10-16T17:07:08;11.77;;;3.90;;
52126;SDS011;38120;53.176;6.614;2022-10-16T17:09:33;10.65;;;5.38;;
52126;SDS011;38120;53.176;6.614;2022-10-16T17:11:59;14.23;;;4.18;;
52126;SDS011;38120;53.176;6.614;2022-10-16T17:14:25;15.80;;;6.63;;
52126;SDS011;38120;53.176;6.614;2022-10-16T17:16:51;15.10;;;5.78;;
52126;SDS011;38120;53.176;6.614;2022-10-16T17:19:18;18.58;;;6.65;;
52126;SDS011;38120;53.176;6.614;2022-10-16T17:21:45;15.25;;;6.78;;
52126;SDS011;38120;53.176;6.614;2022-10-16T17:24:13;11.35;;;6.18;;
52126;SDS011;38120;53.176;6.614;2022-10-16T17:26:39;16.88;;;6.22;;